City by the Sea, Texas
Current Conditions -  °F | °C
As of 10:55 AM on Thursday 30 Oct 2014 (Local Time) from KTFP Reporting Station
Scattered Clouds Scattered Clouds  
Wind Chill: 80°   Ceiling: Unl
Heat Index: 83°   Visibility: 10mi
Dew Point: 69°   Wind: 3mph
Humidity: 68%   Direction: 110°ESE
Pressure: 30.1"   Gusts: NA
Location:  27.9399°N, 97.1805°W
Report Text: KTFP 301555Z AUTO 11003KT 10SM SCT017 SCT023 27/20 A3010 RMK AO2 T02680204
Loading
Personal Weather Stations






























Interactive Weather Map
Tropical Storm Tracking
New forecast layout! Learn more

10-Day Weather Forecast

Advertisements
Track Severe Weather on mobile